Latest Weather Observations for Temora

IDN60801

Issued at 11:02 am EDT Saturday 3 December 2016 (issued every 30 minutes, with the page automatically refreshed every 10 minutes)

About weather observations | Map of weather stations | Latest weather observations for NSW | Other Formats
Station Details ID: 073151 Name: TEMORA AIRPORT Lat: -34.43 Lon: 147.51 Height: 280.5 m
Data from the previous 72 hours. | See also: Recent months at Temora
Date/Time
EDT
Temp
°C
App
Temp
°C
Dew
Point
°C
Rel
Hum
%
Delta-T
°C
Wind Press
QNH
hPa
Press
MSL
hPa
Rain since
9am
mm
Dir  Spd
km/h
Gust
km/h
Spd
kts
Gust
kts
03/10:30am 29.9 27.5 7.2 24 12.4 N 9 17 5 9 1014.4 1013.3 0.0
03/10:00am 28.5 27.6 7.7 27 11.4 SE 2 9 1 5 1014.3 1013.1 0.0
03/09:30am 27.4 25.7 8.3 30 10.5 ESE 7 11 4 6 1014.4 1013.3 0.0
03/09:00am 25.6 24.1 9.0 35 9.1 E 7 11 4 6 1014.3 1013.1 0.0
03/08:30am 24.2 22.2 8.6 37 8.5 E 9 13 5 7 1014.3 1013.1 0.0
03/08:00am 22.7 21.2 9.1 42 7.4 E 7 11 4 6 1014.0 1012.8 0.0
03/07:30am 18.0 17.7 10.1 60 4.3 SSW 2 6 1 3 1013.7 1012.5 0.0
03/07:00am 14.3 14.3 9.9 75 2.3 CALM 0 0 0 0 1013.5 1012.3 0.0
03/06:30am 11.8 11.5 8.8 82 1.5 CALM 0 0 0 0 1013.2 1012.0 0.0
03/06:00am 11.1 9.5 8.1 82 1.5 S 6 6 3 3 1013.0 1011.8 0.0
03/05:30am 10.6 8.7 7.5 81 1.5 S 7 9 4 5 1012.6 1011.4 0.0
03/05:00am 11.5 9.5 8.5 82 1.5 S 9 11 5 6 1012.3 1011.1 0.0
03/04:30am 11.4 10.2 7.9 79 1.7 SW 4 7 2 4 1012.1 1010.9 0.0
03/04:00am 12.0 10.4 8.1 77 1.9 S 6 9 3 5 1012.0 1010.8 0.0
03/03:30am 12.4 11.9 7.7 73 2.3 CALM 0 0 0 0 1012.2 1011.0 0.0
03/03:00am 13.6 13.4 9.1 74 2.3 CALM 0 0 0 0 1012.3 1011.1 0.0
03/02:30am 13.4 12.6 8.3 71 2.6 S 2 7 1 4 1012.2 1011.0 0.0
03/02:00am 12.7 11.8 7.8 72 2.4 SE 2 7 1 4 1012.3 1011.1 0.0
03/01:30am 14.4 12.9 8.6 68 3.0 S 6 7 3 4 1012.3 1011.1 0.0
03/01:00am 14.9 13.6 9.1 68 3.0 SSW 6 9 3 5 1012.6 1011.4 0.0
03/12:30am 14.5 13.8 8.5 67 3.1 SSW 2 7 1 4 1012.7 1011.5 0.0
03/12:00am 15.3 14.6 8.5 64 3.5 S 2 7 1 4 1012.8 1011.6 0.0
 
Date/Time
EDT
Temp
°C
App
Temp
°C
Dew
Point
°C
Rel
Hum
%
Delta-T
°C
Wind Press
QNH
hPa
Press
MSL
hPa
Rain since
9am
mm
Dir  Spd
km/h
Gust
km/h
Spd
kts
Gust
kts
02/11:30pm 16.8 15.0 9.5 62 3.9 S 9 11 5 6 1012.9 1011.7 0.0
02/11:00pm 16.3 16.0 8.8 61 3.9 CALM 0 0 0 0 1012.9 1011.7 0.0
02/10:30pm 16.5 16.0 8.0 57 4.4 CALM 0 0 0 0 1013.0 1011.8 0.0
02/10:00pm 18.2 17.6 7.6 50 5.5 CALM 0 0 0 0 1013.0 1011.8 0.0
02/09:30pm 19.2 17.5 8.2 49 5.8 S 7 9 4 5 1013.0 1011.8 0.0
02/09:00pm 21.1 20.6 7.7 42 7.0 CALM 0 0 0 0 1012.8 1011.6 0.0
02/08:30pm 23.1 21.3 7.2 36 8.4 SSW 6 7 3 4 1012.5 1011.3 0.0
02/08:00pm 24.6 23.3 5.9 30 9.7 WNW 2 7 1 4 1012.3 1011.1 0.0
02/07:30pm 26.6 24.3 5.0 25 11.2 WSW 6 9 3 5 1011.9 1010.7 0.0
02/07:00pm 29.3 26.2 5.4 22 12.6 W 11 15 6 8 1011.9 1010.7 0.0
02/06:30pm 29.3 25.3 4.7 21 12.8 WNW 15 20 8 11 1011.7 1010.5 0.0
02/06:00pm 29.6 26.5 5.6 22 12.8 WNW 11 19 6 10 1011.6 1010.4 0.0
02/05:30pm 29.5 25.3 5.6 22 12.7 W 17 20 9 11 1011.5 1010.3 0.0
02/05:00pm 30.3 26.5 5.6 21 13.2 W 15 24 8 13 1011.4 1010.2 0.0
02/04:30pm 29.8 25.6 5.8 22 12.8 SW 17 28 9 15 1011.4 1010.2 0.0
02/04:00pm 31.1 26.7 4.8 19 13.9 WSW 17 24 9 13 1011.4 1010.2 0.0
02/03:30pm 29.9 24.7 3.8 19 13.5 SW 20 28 11 15 1011.7 1010.5 0.0
02/03:00pm 30.3 24.9 2.5 17 14.1 WSW 20 28 11 15 1012.1 1010.9 0.0
02/02:30pm 29.8 25.0 4.4 20 13.2 W 19 28 10 15 1012.1 1010.9 0.0
02/02:00pm 30.0 23.7 3.9 19 13.5 W 26 35 14 19 1012.4 1011.2 0.0
02/01:30pm 30.1 24.6 4.0 19 13.5 W 22 32 12 17 1012.4 1011.2 0.0
02/01:00pm 29.7 23.9 4.4 20 13.2 WNW 24 32 13 17 1012.4 1011.2 0.0
02/12:30pm 29.1 23.8 3.1 19 13.2 WSW 20 28 11 15 1012.2 1011.0 0.0
02/12:00pm 29.6 23.9 2.8 18 13.6 W 22 33 12 18 1012.0 1010.8 0.0
02/11:30am 30.0 24.7 3.1 18 13.7 W 20 33 11 18 1011.6 1010.4 0.0
02/11:00am 29.3 23.8 1.7 17 13.7 W 20 33 11 18 1011.5 1010.3 0.0
02/10:30am 29.1 24.3 2.4 18 13.4 W 17 26 9 14 1011.5 1010.3 0.0
02/10:00am 28.9 25.4 3.7 20 12.9 WSW 11 19 6 10 1011.4 1010.2 0.0
02/09:30am 27.0 23.6 4.1 23 11.7 S 11 15 6 8 1010.8 1009.6 0.0
02/09:00am 25.9 22.6 4.4 25 10.9 SW 11 15 6 8 1011.2 1009.9 0.0
02/08:30am 23.6 21.3 5.5 31 9.3 SSW 7 11 4 6 1010.8 1009.6 0.0
02/08:00am 21.2 20.0 4.7 34 8.2 CALM 0 0 0 0 1010.7 1009.5 0.0
02/07:30am 18.7 17.5 4.8 40 6.8 CALM 0 0 0 0 1010.2 1009.0 0.0
02/07:00am 15.2 14.0 9.6 69 2.9 ENE 6 7 3 4 1009.6 1008.4 0.0
02/06:30am 13.0 11.9 7.0 67 2.9 E 2 7 1 4 1009.5 1008.3 0.0
02/06:00am 13.2 12.2 7.2 67 3.0 E 2 7 1 4 1009.5 1008.3 0.0
02/05:30am 11.6 10.8 6.7 72 2.4 CALM 0 0 0 0 1009.4 1008.2 0.0
02/05:00am 11.3 10.4 6.0 70 2.5 CALM 0 0 0 0 1009.0 1007.8 0.0
02/04:30am 11.0 10.1 6.0 71 2.4 CALM 0 0 0 0 1008.9 1007.7 0.0
02/04:00am 11.5 9.5 6.4 71 2.4 SSE 6 7 3 4 1008.7 1007.5 0.0
02/03:30am 11.8 9.5 5.9 67 2.8 S 7 9 4 5 1008.7 1007.5 0.0
02/03:00am 11.5 9.4 5.8 68 2.7 S 6 7 3 4 1008.7 1007.5 0.0
02/02:30am 12.5 10.6 6.8 68 2.8 S 6 9 3 5 1008.7 1007.5 0.0
02/02:00am 12.3 11.4 5.9 65 3.1 CALM 0 0 0 0 1008.5 1007.3 0.0
02/01:30am 12.2 11.3 6.0 66 3.0 CALM 0 0 0 0 1008.5 1007.3 0.0
02/01:00am 13.5 12.5 5.7 59 3.7 CALM 0 0 0 0 1008.6 1007.4 0.0
02/12:30am 13.5 12.4 5.2 57 3.9 CALM 0 0 0 0 1008.6 1007.4 0.0
02/12:00am 13.9 12.2 5.8 58 3.9 S 4 7 2 4 1008.8 1007.6 0.0
 
Date/Time
EDT
Temp
°C
App
Temp
°C
Dew
Point
°C
Rel
Hum
%
Delta-T
°C
Wind Press
QNH
hPa
Press
MSL
hPa
Rain since
9am
mm
Dir  Spd
km/h
Gust
km/h
Spd
kts
Gust
kts
01/11:30pm 14.9 13.5 5.7 54 4.5 SSW 2 7 1 4 1008.9 1007.7 0.0
01/11:00pm 14.6 13.6 5.4 54 4.4 CALM 0 0 0 0 1009.0 1007.8 0.0
01/10:30pm 16.7 15.6 5.0 46 5.7 CALM 0 0 0 0 1008.7 1007.5 0.0
01/10:00pm 17.3 16.2 4.9 44 6.0 CALM 0 0 0 0 1008.6 1007.4 0.0
01/09:30pm 17.0 14.2 2.2 37 6.8 WSW 6 7 3 4 1008.5 1007.3 0.0
01/09:00pm 19.9 17.0 1.4 29 8.5 WSW 6 7 3 4 1008.1 1006.8 0.0
01/08:30pm 23.5 19.9 0.6 22 10.7 WSW 9 9 5 5 1007.8 1006.5 0.0
01/08:00pm 25.3 21.1 -0.7 18 12.0 W 11 15 6 8 1007.2 1006.0 0.0
01/07:30pm 27.7 23.2 -0.4 16 13.3 WNW 13 19 7 10 1007.0 1005.8 0.0
01/07:00pm 27.9 24.3 0.6 17 13.2 W 9 13 5 7 1006.6 1005.4 0.0
01/06:30pm 29.6 23.6 -1.7 13 14.7 WNW 20 28 11 15 1006.4 1005.2 0.0
01/06:00pm 30.4 24.5 -2.2 12 15.3 W 19 26 10 14 1006.2 1005.0 0.0
01/05:30pm 30.8 23.9 -3.0 11 15.6 W 24 37 13 20 1006.2 1005.0 0.0
01/05:00pm 31.3 25.2 -3.9 10 16.1 W 19 30 10 16 1006.4 1005.2 0.0
01/04:30pm 30.9 25.6 -0.7 13 15.2 WSW 17 35 9 19 1006.4 1005.2 0.0
01/04:00pm 30.5 24.3 0.0 14 14.8 WSW 22 41 12 22 1006.7 1005.5 0.0
01/03:30pm 30.9 25.3 1.3 15 14.7 WSW 20 39 11 21 1006.8 1005.6 0.0
01/03:00pm 30.7 24.7 1.1 15 14.7 W 22 32 12 17 1007.0 1005.8 0.0
01/02:30pm 30.9 25.5 2.2 16 14.5 W 20 32 11 17 1007.1 1005.9 0.0
01/02:00pm 30.7 24.6 2.9 17 14.2 W 24 35 13 19 1007.4 1006.1 0.0
01/01:30pm 29.4 23.5 4.1 20 13.1 WNW 24 39 13 21 1007.6 1006.3 0.0
01/01:00pm 28.8 22.0 5.0 22 12.5 NW 30 43 16 23 1007.7 1006.4 0.0
01/12:30pm 29.6 24.2 6.3 23 12.5 W 24 41 13 22 1008.1 1006.8 0.0
01/12:00pm 29.0 23.1 5.8 23 12.3 WNW 26 37 14 20 1008.3 1007.1 0.0
01/11:30am 28.5 23.5 6.6 25 11.8 NW 22 32 12 17 1008.4 1007.2 0.0
01/11:00am 27.1 23.2 7.0 28 10.8 WNW 17 28 9 15 1008.7 1007.5 0.0
01/10:30am 26.6 24.2 7.1 29 10.4 NW 9 17 5 9 1008.9 1007.9 0.0
01/10:00am 25.0 23.2 7.2 32 9.5 SW 6 13 3 7 1008.9 1007.9 0.0
01/09:30am 23.7 22.6 6.9 34 8.8 WSW 2 7 1 4 1009.1 1008.1 0.0
01/09:00am 23.5 21.0 6.7 34 8.8 S 9 15 5 8 1009.2 1008.2 0.0
01/08:30am 22.2 20.0 6.0 35 8.3 SSW 7 9 4 5 1009.3 1008.3 0.0
01/08:00am 19.9 18.1 7.0 43 6.6 SSW 6 9 3 5 1009.2 1008.2 0.0
01/07:30am 17.4 15.7 8.5 56 4.6 WNW 7 9 4 5 1009.2 1008.2 0.0
01/07:00am 15.2 13.3 8.9 66 3.3 S 9 11 5 6 1008.7 1007.7 0.0
01/06:30am 12.0 10.6 8.8 81 1.6 S 6 9 3 5 1008.9 1007.9 0.0
01/06:00am 10.5 9.8 6.8 78 1.8 CALM 0 0 0 0 1008.5 1007.5 0.0
01/05:30am 12.9 11.2 8.2 73 2.4 ENE 7 9 4 5 1008.5 1007.5 0.0
01/05:00am 10.5 9.9 7.2 80 1.6 CALM 0 7 0 4 1008.6 1007.6 0.0
01/04:30am 9.7 7.2 6.6 81 1.5 SSW 9 9 5 5 1008.4 1007.4 0.0
01/04:00am 11.2 8.9 7.5 78 1.8 SW 9 9 5 5 1008.3 1007.2 0.0
01/03:30am 12.4 11.9 7.7 73 2.3 CALM 0 0 0 0 1008.1 1007.0 0.0
01/03:00am 13.6 12.8 8.2 70 2.7 S 2 6 1 3 1008.2 1007.1 0.0
01/02:30am 15.0 14.7 8.5 65 3.3 CALM 0 0 0 0 1008.1 1007.0 0.0
01/02:00am 15.3 14.0 7.8 61 3.8 SW 4 7 2 4 1008.3 1007.2 0.0
01/01:30am 17.1 16.6 7.7 54 4.8 CALM 0 0 0 0 1008.4 1007.4 0.0
01/01:00am 18.6 18.1 7.7 49 5.6 CALM 0 0 0 0 1008.5 1007.5 0.0
01/12:30am 19.7 19.0 7.1 44 6.5 CALM 0 0 0 0 1008.4 1007.4 0.0
01/12:00am 20.3 19.2 7.0 42 6.9 WNW 2 6 1 3 1008.6 1007.6 0.0
 
Date/Time
EDT
Temp
°C
App
Temp
°C
Dew
Point
°C
Rel
Hum
%
Delta-T
°C
Wind Press
QNH
hPa
Press
MSL
hPa
Rain since
9am
mm
Dir  Spd
km/h
Gust
km/h
Spd
kts
Gust
kts
30/11:30pm 20.9 19.0 6.8 40 7.3 WNW 6 7 3 4 1008.8 1007.8 0.0
30/11:00pm 22.2 20.2 6.4 36 8.2 WSW 6 11 3 6 1008.7 1007.7 0.0
30/10:30pm 23.0 20.1 6.3 34 8.6 WSW 11 15 6 8 1008.9 1007.9 0.0
30/10:00pm 23.3 20.0 6.6 34 8.7 WSW 13 17 7 9 1009.0 1008.0 0.0
30/09:30pm 24.0 19.4 5.8 31 9.4 WSW 19 24 10 13 1009.1 1008.1 0.0
30/09:00pm 24.6 19.5 3.3 25 10.6 WSW 19 28 10 15 1008.5 1007.5 0.0
30/08:30pm 25.0 19.3 3.0 24 10.8 WSW 22 39 12 21 1008.1 1007.0 0.0
30/08:00pm 25.7 19.8 1.8 21 11.6 WSW 22 35 12 19 1007.9 1006.8 0.0
30/07:30pm 27.5 18.9 0.3 17 13.0 WSW 35 56 19 30 1007.6 1006.5 0.0
30/07:14pm 28.2 20.3 -1.8 14 13.9 WSW 30 50 16 27 1007.2 1006.2 0.0
30/07:00pm 27.9 20.8 -4.1 12 14.2 WSW 24 35 13 19 1007.0 1006.0 0.0
30/06:30pm 28.9 19.8 -3.3 12 14.6 WSW 35 48 19 26 1006.4 1005.4 0.0
30/06:04pm 31.2 22.6 -8.6 7 16.8 WSW 30 48 16 26 1005.8 1004.8 0.0
30/06:00pm 31.8 23.2 -8.2 7 17.1 WSW 30 43 16 23 1005.8 1004.8 0.0
30/05:30pm 32.4 23.7 -9.7 6 17.6 W 30 43 16 23 1005.5 1004.5 0.0
30/05:00pm 32.6 23.6 -5.9 8 17.2 W 33 46 18 25 1005.4 1004.4 0.0
30/04:30pm 32.2 23.6 -4.6 9 16.7 W 32 46 17 25 1005.2 1004.2 0.0
30/04:10pm 33.4 25.4 -5.3 8 17.5 WSW 28 46 15 25 1005.2 1004.2 0.0
30/04:00pm 33.6 24.9 -5.2 8 17.7 WSW 32 46 17 25 1005.1 1004.0 0.0
30/03:49pm 33.7 25.8 -5.1 8 17.7 W 28 46 15 25 1005.3 1004.3 0.0
30/03:30pm 33.5 26.1 -1.0 11 16.8 WNW 28 46 15 25 1005.4 1004.4 0.0
30/03:29pm 33.6 26.0 -2.2 10 17.1 WNW 28 46 15 25 1005.4 1004.4 0.0
30/03:24pm 34.3 26.0 -1.7 10 17.4 WNW 32 46 17 25 1005.4 1004.4 0.0
30/03:00pm 32.3 24.9 -0.7 12 16.1 NW 28 43 15 23 1005.8 1004.8 0.0
30/02:52pm 33.7 26.5 0.4 12 16.6 NW 28 48 15 26 1005.8 1004.8 0.0
30/02:30pm 34.1 26.0 -0.5 11 17.1 NW 32 46 17 25 1006.2 1005.2 0.0
30/02:00pm 33.2 25.5 0.0 12 16.5 NNW 30 48 16 26 1006.5 1005.5 0.0
30/01:58pm 33.8 26.2 0.5 12 16.7 NW 30 48 16 26 1006.6 1005.6 0.0
30/01:41pm 32.2 25.4 3.2 16 15.0 WNW 28 46 15 25 1006.8 1005.8 0.0
30/01:30pm 30.9 26.0 5.3 20 13.6 WNW 20 37 11 20 1007.1 1006.1 0.0
30/01:00pm 32.2 27.3 7.1 21 13.9 NW 22 37 12 20 1007.8 1006.7 0.0
30/12:40pm 32.0 25.6 7.0 21 13.8 NNW 30 44 16 24 1008.1 1007.0 0.0
30/12:30pm 31.9 28.3 10.6 27 12.4 NNW 20 32 11 17 1008.2 1007.1 0.0
30/12:00pm 30.1 25.8 10.6 30 11.3 NNW 24 37 13 20 1008.7 1007.7 0.0
30/11:30am 29.4 25.0 10.5 31 10.9 N 24 35 13 19 1009.0 1008.0 0.0

Other Formats:

Comma delimited format used in spreadsheet applications
http://www.bom.gov.au/fwo/IDN60801/IDN60801.95722.axf

JavaScript Object Notation format (JSON) in row-major order
http://www.bom.gov.au/fwo/IDN60801/IDN60801.95722.json